createdAt,value
2023-01-03T00:01:51.980Z,6.13
2023-01-03T00:04:20.958Z,6.07
2023-01-03T00:06:49.205Z,5.90
2023-01-03T00:09:17.330Z,5.60
2023-01-03T00:12:07.658Z,6.03
2023-01-03T00:14:36.163Z,5.83
2023-01-03T00:17:04.010Z,5.03
2023-01-03T00:19:33.366Z,5.43
2023-01-03T00:21:59.494Z,5.20
2023-01-03T00:24:25.639Z,5.00
2023-01-03T00:26:51.849Z,3.90
2023-01-03T00:29:18.524Z,3.80
2023-01-03T00:31:44.898Z,4.10
2023-01-03T00:34:11.811Z,3.83
2023-01-03T00:36:38.382Z,4.17
2023-01-03T00:39:04.909Z,3.67
2023-01-03T00:41:31.104Z,3.83
2023-01-03T00:43:57.266Z,3.57
2023-01-03T00:46:23.794Z,3.83
2023-01-03T00:51:42.490Z,3.77
2023-01-03T00:54:09.627Z,3.80
2023-01-03T00:56:37.914Z,3.93
2023-01-03T00:59:05.093Z,3.30
2023-01-03T01:01:37.450Z,3.30
2023-01-03T01:04:10.155Z,3.33
2023-01-03T01:06:39.488Z,3.00
2023-01-03T01:09:07.727Z,3.50
2023-01-03T01:11:33.983Z,3.30
2023-01-03T01:14:00.334Z,3.10
2023-01-03T01:16:27.864Z,3.30
2023-01-03T01:18:54.884Z,3.67
2023-01-03T01:21:23.436Z,3.90
2023-01-03T01:23:49.907Z,3.87
2023-01-03T01:26:19.668Z,3.50
2023-01-03T01:28:46.577Z,3.70
2023-01-03T01:31:16.050Z,3.70
2023-01-03T01:33:42.404Z,3.80
2023-01-03T01:36:10.161Z,3.40
2023-01-03T01:38:36.369Z,3.80
2023-01-03T01:41:02.773Z,3.50
2023-01-03T01:43:48.040Z,3.60
2023-01-03T01:46:20.034Z,3.60
2023-01-03T01:48:47.156Z,3.43
2023-01-03T01:51:13.754Z,4.00
2023-01-03T01:53:41.223Z,3.63
2023-01-03T01:56:11.292Z,3.60
2023-01-03T01:58:45.857Z,3.60
2023-01-03T02:01:13.591Z,3.40
2023-01-03T02:03:41.147Z,3.17
2023-01-03T02:06:09.172Z,3.60
2023-01-03T02:08:35.393Z,3.70
2023-01-03T02:11:21.757Z,3.30
2023-01-03T02:13:53.664Z,3.53
2023-01-03T02:16:47.398Z,3.40
2023-01-03T02:19:58.726Z,3.40
2023-01-03T02:22:49.211Z,3.87
2023-01-03T02:25:46.496Z,3.50
2023-01-03T02:28:56.158Z,3.80
2023-01-03T02:31:27.687Z,3.87
2023-01-03T02:33:58.619Z,4.17
2023-01-03T02:36:31.811Z,4.23
2023-01-03T02:39:02.630Z,4.13
2023-01-03T02:41:36.856Z,4.20
2023-01-03T02:44:07.745Z,4.27
2023-01-03T02:46:38.597Z,4.50
2023-01-03T02:49:07.650Z,3.90
2023-01-03T02:51:36.830Z,4.90
2023-01-03T02:54:05.198Z,4.10
2023-01-03T02:56:34.185Z,4.33
2023-01-03T02:59:08.316Z,4.60
2023-01-03T03:01:36.119Z,4.13
2023-01-03T03:04:03.328Z,4.73
2023-01-03T03:09:25.401Z,5.13
2023-01-03T03:12:12.129Z,6.00
2023-01-03T03:14:40.351Z,4.50
2023-01-03T03:17:10.921Z,4.83
2023-01-03T03:19:55.698Z,4.77
2023-01-03T03:22:48.092Z,5.20
2023-01-03T03:25:17.105Z,5.30
2023-01-03T03:28:04.492Z,6.67
2023-01-03T03:30:32.582Z,4.90
2023-01-03T03:33:00.916Z,5.10
2023-01-03T03:35:28.610Z,4.83
2023-01-03T03:37:56.495Z,4.53
2023-01-03T03:43:57.278Z,4.60
2023-01-03T03:46:29.179Z,4.67
2023-01-03T03:49:19.034Z,4.10
2023-01-03T03:51:47.222Z,3.93
2023-01-03T03:57:12.400Z,4.00
2023-01-03T03:59:39.188Z,4.30
2023-01-03T04:02:06.634Z,4.30
2023-01-03T04:04:35.650Z,4.53
2023-01-03T04:07:02.022Z,4.87
2023-01-03T04:09:30.076Z,4.60
2023-01-03T04:11:56.235Z,3.70
2023-01-03T04:14:22.438Z,4.43
2023-01-03T04:16:48.687Z,4.50
2023-01-03T04:19:14.852Z,4.43
2023-01-03T04:21:41.649Z,4.63
2023-01-03T04:24:08.293Z,4.33
2023-01-03T04:26:34.480Z,4.30
2023-01-03T04:29:01.338Z,3.80
2023-01-03T04:31:27.806Z,4.33
2023-01-03T04:33:54.798Z,4.90
2023-01-03T04:36:21.588Z,4.80
2023-01-03T04:38:48.512Z,4.77
2023-01-03T04:41:14.709Z,4.60
2023-01-03T04:43:59.134Z,4.43
2023-01-03T04:46:25.377Z,4.90
2023-01-03T04:48:51.610Z,4.43
2023-01-03T04:51:17.811Z,4.33
2023-01-03T04:53:44.090Z,4.60
2023-01-03T04:56:10.885Z,4.63
2023-01-03T04:58:37.148Z,5.00
2023-01-03T05:01:05.028Z,4.73
2023-01-03T05:03:31.311Z,4.80
2023-01-03T05:05:58.790Z,4.60
2023-01-03T05:08:24.960Z,5.00
2023-01-03T05:10:51.821Z,5.20
2023-01-03T05:13:18.646Z,4.67
2023-01-03T05:15:44.959Z,5.63
2023-01-03T05:18:11.214Z,5.70
2023-01-03T05:20:56.403Z,6.00
2023-01-03T05:23:41.306Z,8.90
2023-01-03T05:26:11.915Z,9.73
2023-01-03T05:28:39.052Z,11.00
2023-01-03T05:31:05.429Z,9.67
2023-01-03T05:33:31.583Z,9.00
2023-01-03T05:35:57.769Z,8.13
2023-01-03T05:38:24.024Z,7.33
2023-01-03T05:40:50.674Z,8.00
2023-01-03T05:43:16.831Z,7.37
2023-01-03T05:45:48.976Z,6.70
2023-01-03T05:48:15.217Z,6.60
2023-01-03T05:50:41.417Z,6.63
2023-01-03T05:53:07.758Z,5.93
2023-01-03T05:55:35.827Z,6.20
2023-01-03T05:58:02.016Z,6.87
2023-01-03T06:00:28.275Z,6.33
2023-01-03T06:02:55.298Z,6.87
2023-01-03T06:05:21.680Z,6.60
2023-01-03T06:07:47.852Z,6.17
2023-01-03T06:10:16.632Z,6.97
2023-01-03T06:12:42.862Z,5.67
2023-01-03T06:15:09.724Z,5.80
2023-01-03T06:17:54.054Z,5.60
2023-01-03T06:20:21.072Z,5.60
2023-01-03T06:22:47.480Z,5.47
2023-01-03T06:25:13.820Z,5.43
2023-01-03T06:27:39.967Z,5.17
2023-01-03T06:30:07.389Z,5.40
2023-01-03T06:32:33.523Z,5.73
2023-01-03T06:34:59.688Z,6.37
2023-01-03T06:37:26.593Z,5.90
2023-01-03T06:39:52.926Z,6.40
2023-01-03T06:42:37.301Z,6.47
2023-01-03T06:45:22.611Z,6.30
2023-01-03T06:48:07.209Z,6.07
2023-01-03T06:50:51.873Z,5.93
2023-01-03T06:53:21.049Z,5.90
2023-01-03T06:55:54.437Z,6.13
2023-01-03T06:58:22.921Z,5.27
2023-01-03T07:00:49.270Z,5.87
2023-01-03T07:03:15.432Z,5.63
2023-01-03T07:05:41.694Z,5.57
2023-01-03T07:08:07.846Z,6.63
2023-01-03T07:10:34.750Z,5.27
2023-01-03T07:13:19.404Z,5.70
2023-01-03T07:15:45.978Z,5.20
2023-01-03T07:18:12.691Z,5.67
2023-01-03T07:20:42.439Z,6.63
2023-01-03T07:23:08.699Z,6.00
2023-01-03T07:25:40.245Z,6.17
2023-01-03T07:28:10.157Z,5.97
2023-01-03T07:30:38.564Z,6.37
2023-01-03T07:33:04.887Z,6.43
2023-01-03T07:35:31.727Z,6.43
2023-01-03T07:37:57.889Z,6.07
2023-01-03T07:40:24.028Z,5.67
2023-01-03T07:43:09.170Z,6.03
2023-01-03T07:45:39.315Z,5.63
2023-01-03T07:48:05.850Z,5.87
2023-01-03T07:50:32.030Z,5.40
2023-01-03T07:52:58.201Z,6.03
2023-01-03T07:55:24.495Z,5.60
2023-01-03T07:57:51.321Z,5.93
2023-01-03T08:00:18.057Z,5.20
2023-01-03T08:02:47.480Z,5.77
2023-01-03T08:05:14.130Z,5.17
2023-01-03T08:07:40.420Z,5.47
2023-01-03T08:10:27.702Z,6.03
2023-01-03T08:13:12.782Z,5.13
2023-01-03T08:15:39.019Z,4.80
2023-01-03T08:18:05.377Z,4.83
2023-01-03T08:20:31.591Z,5.37
2023-01-03T08:22:58.924Z,5.27
2023-01-03T08:25:25.267Z,4.70
2023-01-03T08:27:51.435Z,4.53
2023-01-03T08:30:18.830Z,5.07
2023-01-03T08:32:45.167Z,4.40
2023-01-03T08:35:11.318Z,4.23
2023-01-03T08:37:37.489Z,4.70
2023-01-03T08:40:05.133Z,3.90
2023-01-03T08:42:33.119Z,4.57
2023-01-03T08:45:01.957Z,3.93
2023-01-03T08:47:29.139Z,3.67
2023-01-03T08:49:55.552Z,4.17
2023-01-03T08:52:21.699Z,4.07
2023-01-03T08:54:48.066Z,3.83
2023-01-03T08:57:14.239Z,3.73
2023-01-03T08:59:40.385Z,4.17
2023-01-03T09:02:06.697Z,4.53
2023-01-03T09:04:33.701Z,4.93
2023-01-03T09:07:00.228Z,4.37
2023-01-03T09:09:26.506Z,3.70
2023-01-03T09:11:52.683Z,3.60
2023-01-03T09:14:18.989Z,3.60
2023-01-03T09:16:49.016Z,3.87
2023-01-03T09:19:15.814Z,4.37
2023-01-03T09:21:42.704Z,4.13
2023-01-03T09:24:08.954Z,3.80
2023-01-03T09:26:35.615Z,3.87
2023-01-03T09:29:01.783Z,4.23
2023-01-03T09:31:32.267Z,4.03
2023-01-03T09:33:58.445Z,4.07
2023-01-03T09:36:24.602Z,4.00
2023-01-03T09:38:51.546Z,4.23
2023-01-03T09:41:21.326Z,3.90
2023-01-03T09:43:49.240Z,3.83
2023-01-03T09:46:18.078Z,4.30
2023-01-03T09:48:44.900Z,4.13
2023-01-03T09:51:36.212Z,3.57
2023-01-03T09:54:21.327Z,4.37
2023-01-03T09:57:05.773Z,4.20
2023-01-03T09:59:53.709Z,4.30
2023-01-03T10:02:51.647Z,4.43
2023-01-03T10:05:36.196Z,4.40
2023-01-03T10:08:24.158Z,4.00
2023-01-03T10:10:57.158Z,4.53
2023-01-03T10:13:31.385Z,4.00
2023-01-03T10:16:05.258Z,4.23
2023-01-03T10:18:45.602Z,4.40
2023-01-03T10:21:16.647Z,4.43
2023-01-03T10:23:43.176Z,4.13
2023-01-03T10:26:11.392Z,4.63
2023-01-03T10:28:40.640Z,4.53
2023-01-03T10:31:20.465Z,4.47
2023-01-03T10:33:48.494Z,4.73
2023-01-03T10:36:16.204Z,3.90
2023-01-03T10:38:49.861Z,3.90
2023-01-03T10:41:29.220Z,3.53
2023-01-03T10:43:57.338Z,3.67
2023-01-03T10:46:24.668Z,3.20
2023-01-03T10:49:26.115Z,3.87
2023-01-03T10:51:43.190Z,3.70
2023-01-03T10:54:11.884Z,3.90
2023-01-03T10:56:38.807Z,2.90
2023-01-03T10:59:14.779Z,2.70
2023-01-03T11:01:56.154Z,2.90
2023-01-03T11:04:23.133Z,2.93
2023-01-03T11:06:59.563Z,2.40
2023-01-03T11:09:27.505Z,2.50
2023-01-03T11:12:00.103Z,2.40
2023-01-03T11:14:27.863Z,2.53
2023-01-03T11:16:56.074Z,2.27
2023-01-03T11:19:26.973Z,2.20
2023-01-03T11:21:58.041Z,2.17
2023-01-03T11:24:41.310Z,2.30
2023-01-03T11:27:13.883Z,2.10
2023-01-03T11:29:53.223Z,2.50
2023-01-03T11:32:24.359Z,2.40
2023-01-03T11:35:24.820Z,2.10
2023-01-03T11:37:57.695Z,2.00
2023-01-03T11:40:29.286Z,1.93
2023-01-03T11:43:09.755Z,2.20
2023-01-03T11:45:48.895Z,1.73
2023-01-03T11:48:38.386Z,1.80
2023-01-03T11:51:11.783Z,1.73
2023-01-03T11:53:38.780Z,1.63
2023-01-03T11:56:12.386Z,1.47
2023-01-03T11:58:51.083Z,1.73
2023-01-03T12:01:26.411Z,1.47
2023-01-03T12:04:06.850Z,1.83
2023-01-03T12:06:37.332Z,1.60
2023-01-03T12:09:18.832Z,1.23
2023-01-03T12:12:16.944Z,1.30
2023-01-03T12:14:46.386Z,1.27
2023-01-03T12:17:15.329Z,1.27
2023-01-03T12:19:43.446Z,1.30
2023-01-03T12:22:16.710Z,1.10
2023-01-03T12:24:46.014Z,1.07
2023-01-03T12:27:16.817Z,1.30
2023-01-03T12:29:49.343Z,1.03
2023-01-03T12:32:18.582Z,1.20
2023-01-03T12:34:48.690Z,1.37
2023-01-03T12:37:18.122Z,1.70
2023-01-03T12:39:49.418Z,1.50
2023-01-03T12:42:21.719Z,1.90
2023-01-03T12:44:54.231Z,1.57
2023-01-03T12:47:26.586Z,1.30
2023-01-03T12:49:56.874Z,1.30
2023-01-03T12:52:24.481Z,1.30
2023-01-03T12:54:54.247Z,1.23
2023-01-03T12:57:44.598Z,1.00
2023-01-03T13:00:38.192Z,1.30
2023-01-03T13:03:06.696Z,1.90
2023-01-03T13:05:37.084Z,1.57
2023-01-03T13:08:07.517Z,1.43
2023-01-03T13:10:36.237Z,1.80
2023-01-03T13:13:02.862Z,2.00
2023-01-03T13:15:36.247Z,1.50
2023-01-03T13:18:31.933Z,1.83
2023-01-03T13:20:58.159Z,1.87
2023-01-03T13:23:33.726Z,1.33
2023-01-03T13:26:21.603Z,1.40
2023-01-03T13:28:48.380Z,1.40
2023-01-03T13:31:38.268Z,1.50
2023-01-03T13:34:29.573Z,1.37
2023-01-03T13:37:15.499Z,1.00
2023-01-03T13:39:55.311Z,1.10
2023-01-03T13:42:23.513Z,1.10
2023-01-03T13:44:50.283Z,1.10
2023-01-03T13:47:24.508Z,0.90
2023-01-03T13:49:54.004Z,1.23
2023-01-03T13:52:36.980Z,1.10
2023-01-03T13:55:03.861Z,1.20
2023-01-03T13:57:35.850Z,1.30
2023-01-03T14:00:08.510Z,1.53
2023-01-03T14:03:07.071Z,1.33
2023-01-03T14:05:53.748Z,1.57
2023-01-03T14:08:31.934Z,1.87
2023-01-03T14:11:15.614Z,1.60
2023-01-03T14:13:43.815Z,1.30
2023-01-03T14:16:18.909Z,1.20
2023-01-03T14:18:48.880Z,1.30
2023-01-03T14:21:25.589Z,1.10
2023-01-03T14:24:00.090Z,1.00
2023-01-03T14:26:27.533Z,1.20
2023-01-03T14:28:55.211Z,0.90
2023-01-03T14:31:23.702Z,0.93
2023-01-03T14:33:54.464Z,1.00
2023-01-03T14:36:21.380Z,1.00
2023-01-03T14:38:49.369Z,1.07
2023-01-03T14:41:25.872Z,0.93
2023-01-03T14:43:59.013Z,1.50
2023-01-03T14:46:29.088Z,1.20
2023-01-03T14:49:02.695Z,1.40
2023-01-03T14:51:33.264Z,1.10
2023-01-03T14:53:59.887Z,1.20
2023-01-03T14:56:29.004Z,1.10
2023-01-03T14:58:55.616Z,0.90
2023-01-03T15:01:22.853Z,1.20
2023-01-03T15:03:49.829Z,0.93
2023-01-03T15:06:19.264Z,0.90
2023-01-03T15:08:48.056Z,1.10
2023-01-03T15:11:15.139Z,1.17
2023-01-03T15:13:51.611Z,1.57
2023-01-03T15:16:22.341Z,1.40
2023-01-03T15:18:48.845Z,1.13
2023-01-03T15:21:17.322Z,1.20
2023-01-03T15:23:46.262Z,1.50
2023-01-03T15:26:20.781Z,1.30
2023-01-03T15:28:52.458Z,1.60
2023-01-03T15:31:29.211Z,2.30
2023-01-03T15:33:59.273Z,1.90
2023-01-03T15:36:28.076Z,1.87
2023-01-03T15:38:55.062Z,2.17
2023-01-03T15:41:38.209Z,3.90
2023-01-03T15:44:05.265Z,3.00
2023-01-03T15:46:31.525Z,3.00
2023-01-03T15:48:57.857Z,3.80
2023-01-03T15:51:26.017Z,3.37
2023-01-03T15:53:52.218Z,2.83
2023-01-03T15:56:20.572Z,1.90
2023-01-03T15:58:48.471Z,1.37
2023-01-03T16:01:15.098Z,1.00
2023-01-03T16:03:41.496Z,1.40
2023-01-03T16:06:08.023Z,1.30
2023-01-03T16:08:35.749Z,1.53
2023-01-03T16:11:03.313Z,1.20
2023-01-03T16:13:36.510Z,1.50
2023-01-03T16:16:02.873Z,2.50
2023-01-03T16:18:35.137Z,3.80
2023-01-03T16:21:01.661Z,4.83
2023-01-03T16:23:33.549Z,4.40
2023-01-03T16:25:59.941Z,3.73
2023-01-03T16:28:26.499Z,3.00
2023-01-03T16:31:00.688Z,2.87
2023-01-03T16:33:30.647Z,2.30
2023-01-03T16:35:56.966Z,4.00
2023-01-03T16:38:24.765Z,4.40
2023-01-03T16:40:52.176Z,2.60
2023-01-03T16:43:18.777Z,1.90
2023-01-03T16:45:47.471Z,1.90
2023-01-03T16:48:16.876Z,1.80
2023-01-03T16:50:43.204Z,1.20
2023-01-03T16:53:09.627Z,1.60
2023-01-03T16:55:37.779Z,2.10
2023-01-03T16:58:03.922Z,1.30
2023-01-03T17:00:31.989Z,1.30
2023-01-03T17:02:58.991Z,1.30
2023-01-03T17:05:26.346Z,1.93
2023-01-03T17:07:55.277Z,1.50
2023-01-03T17:10:26.344Z,1.50
2023-01-03T17:12:53.106Z,1.60
2023-01-03T17:15:19.265Z,1.60
2023-01-03T17:17:45.423Z,1.50
2023-01-03T17:20:14.257Z,1.60
2023-01-03T17:22:50.403Z,1.80
2023-01-03T17:25:16.591Z,1.80
2023-01-03T17:27:49.866Z,1.60
2023-01-03T17:30:17.645Z,1.47
2023-01-03T17:32:43.859Z,1.67
2023-01-03T17:35:12.337Z,1.83
2023-01-03T17:38:05.621Z,1.70
2023-01-03T17:40:33.383Z,1.90
2023-01-03T17:43:00.270Z,2.20
2023-01-03T17:45:44.843Z,1.87
2023-01-03T17:48:29.816Z,2.27
2023-01-03T17:50:56.124Z,1.77
2023-01-03T17:53:23.125Z,1.73
2023-01-03T17:55:50.244Z,1.43
2023-01-03T17:58:18.605Z,1.77
2023-01-03T18:00:44.959Z,1.80
2023-01-03T18:03:11.346Z,1.53
2023-01-03T18:05:37.793Z,1.60
2023-01-03T18:08:04.225Z,1.97
2023-01-03T18:10:36.443Z,1.60
2023-01-03T18:13:15.974Z,1.67
2023-01-03T18:15:42.227Z,1.90
2023-01-03T18:18:12.581Z,2.03
2023-01-03T18:20:38.771Z,1.87
2023-01-03T18:23:05.432Z,1.60
2023-01-03T18:25:33.653Z,1.60
2023-01-03T18:28:03.387Z,1.93
2023-01-03T18:30:30.423Z,1.73
2023-01-03T18:32:56.700Z,1.70
2023-01-03T18:35:29.669Z,1.90
2023-01-03T18:38:00.552Z,1.60
2023-01-03T18:40:26.903Z,1.37
2023-01-03T18:43:09.778Z,1.90
2023-01-03T18:45:38.025Z,1.83
2023-01-03T18:48:04.830Z,1.63
2023-01-03T18:50:31.424Z,2.00
2023-01-03T18:52:59.562Z,2.30
2023-01-03T18:55:27.688Z,2.80
2023-01-03T18:57:54.056Z,2.10
2023-01-03T19:00:22.472Z,1.83
2023-01-03T19:02:50.190Z,1.97
2023-01-03T19:05:18.045Z,2.13
2023-01-03T19:07:45.002Z,1.90
2023-01-03T19:10:19.438Z,2.20
2023-01-03T19:12:46.028Z,2.37
2023-01-03T19:15:16.849Z,1.90
2023-01-03T19:17:43.421Z,2.17
2023-01-03T19:20:11.108Z,2.10
2023-01-03T19:22:38.794Z,2.90
2023-01-03T19:25:07.287Z,2.20
2023-01-03T19:27:35.710Z,1.93
2023-01-03T19:30:03.562Z,1.87
2023-01-03T19:32:29.974Z,1.97
2023-01-03T19:34:56.375Z,2.20
2023-01-03T19:37:23.226Z,1.60
2023-01-03T19:39:50.576Z,2.13
2023-01-03T19:42:36.845Z,1.80
2023-01-03T19:45:14.943Z,2.20
2023-01-03T19:47:41.112Z,1.90
2023-01-03T19:50:17.139Z,1.60
2023-01-03T19:52:45.235Z,2.23
2023-01-03T19:55:11.715Z,1.87
2023-01-03T19:57:39.587Z,2.07
2023-01-03T20:00:07.184Z,2.03
2023-01-03T20:02:36.597Z,1.93
2023-01-03T20:05:12.399Z,1.73
2023-01-03T20:07:38.773Z,1.70
2023-01-03T20:10:07.189Z,2.43
2023-01-03T20:12:33.507Z,2.00
2023-01-03T20:15:06.473Z,1.87
2023-01-03T20:17:33.598Z,1.93
2023-01-03T20:20:00.260Z,1.63
2023-01-03T20:25:22.666Z,1.93
2023-01-03T20:27:49.662Z,1.63
2023-01-03T20:30:16.777Z,1.90
2023-01-03T20:32:43.138Z,1.90
2023-01-03T20:36:06.250Z,1.90
2023-01-03T20:38:02.502Z,1.80
2023-01-03T20:40:29.644Z,2.20
2023-01-03T20:42:56.700Z,1.50
2023-01-03T20:45:22.969Z,1.70
2023-01-03T20:47:51.524Z,1.60
2023-01-03T20:50:23.682Z,2.00
2023-01-03T20:52:50.515Z,1.93
2023-01-03T20:55:18.031Z,1.80
2023-01-03T20:57:44.952Z,1.70
2023-01-03T21:00:20.563Z,1.80
2023-01-03T21:02:47.820Z,1.50
2023-01-03T21:05:14.588Z,1.93
2023-01-03T21:07:58.843Z,1.73
2023-01-03T21:10:27.605Z,2.00
2023-01-03T21:12:54.461Z,1.90
2023-01-03T21:15:20.635Z,2.10
2023-01-03T21:17:50.731Z,1.87
2023-01-03T21:20:20.835Z,1.97
2023-01-03T21:22:47.236Z,1.87
2023-01-03T21:25:19.240Z,1.73
2023-01-03T21:27:45.710Z,2.07
2023-01-03T21:30:13.352Z,1.90
2023-01-03T21:32:39.634Z,1.80
2023-01-03T21:35:07.332Z,2.03
2023-01-03T21:37:35.514Z,2.07
2023-01-03T21:40:01.660Z,1.87
2023-01-03T21:42:46.064Z,2.13
2023-01-03T21:45:13.608Z,1.90
2023-01-03T21:47:39.828Z,1.80
2023-01-03T21:50:07.912Z,2.00
2023-01-03T21:52:34.523Z,1.80
2023-01-03T21:55:00.711Z,1.63
2023-01-03T21:57:26.851Z,2.00
2023-01-03T21:59:53.003Z,1.90
2023-01-03T22:02:38.135Z,1.97
2023-01-03T22:05:04.949Z,2.10
2023-01-03T22:07:31.361Z,1.90
2023-01-03T22:10:15.835Z,2.00
2023-01-03T22:12:42.187Z,1.80
2023-01-03T22:15:09.459Z,2.37
2023-01-03T22:17:36.553Z,1.90
2023-01-03T22:20:03.938Z,1.87
2023-01-03T22:22:30.099Z,2.10
2023-01-03T22:24:56.281Z,2.30
2023-01-03T22:27:22.438Z,2.40
2023-01-03T22:29:48.569Z,2.77
2023-01-03T22:32:15.132Z,2.17
2023-01-03T22:34:42.218Z,1.90
2023-01-03T22:37:12.426Z,2.10
2023-01-03T22:39:38.699Z,2.00
2023-01-03T22:42:05.211Z,2.27
2023-01-03T22:44:31.389Z,2.33
2023-01-03T22:46:57.577Z,1.90
2023-01-03T22:49:23.947Z,1.60
2023-01-03T22:51:50.895Z,1.90
2023-01-03T22:54:17.075Z,1.97
2023-01-03T22:56:43.323Z,2.00
2023-01-03T22:59:09.578Z,1.87
2023-01-03T23:01:37.043Z,2.73
2023-01-03T23:04:05.876Z,2.17
2023-01-03T23:06:33.359Z,1.73
2023-01-03T23:09:00.597Z,2.33
2023-01-03T23:11:46.886Z,2.30
2023-01-03T23:14:14.540Z,1.60
2023-01-03T23:16:41.087Z,2.00
2023-01-03T23:19:10.414Z,1.87
2023-01-03T23:21:36.794Z,1.83
2023-01-03T23:24:03.940Z,1.80
2023-01-03T23:26:32.645Z,2.20
2023-01-03T23:28:59.642Z,1.70
2023-01-03T23:31:26.814Z,1.87
2023-01-03T23:33:53.721Z,1.70
2023-01-03T23:36:19.831Z,2.00
2023-01-03T23:38:46.045Z,2.30
2023-01-03T23:41:12.879Z,2.00
2023-01-03T23:43:39.140Z,1.80
2023-01-03T23:46:05.948Z,1.60
2023-01-03T23:48:32.359Z,1.90
2023-01-03T23:51:01.332Z,2.00
2023-01-03T23:53:27.587Z,1.73
2023-01-03T23:55:54.014Z,1.97
2023-01-03T23:58:20.904Z,1.70
